sensor_id;sensor_type;location;lat;lon;timestamp;temperature;humidity
34147;DHT22;20423;49.448;9.056;2023-03-23T00:01:26;10.80;99.90
34147;DHT22;20423;49.448;9.056;2023-03-23T00:03:55;10.80;99.90
34147;DHT22;20423;49.448;9.056;2023-03-23T00:06:27;10.90;99.90
34147;DHT22;20423;49.448;9.056;2023-03-23T00:08:54;10.80;99.90
34147;DHT22;20423;49.448;9.056;2023-03-23T00:11:26;10.90;99.90
34147;DHT22;20423;49.448;9.056;2023-03-23T00:13:55;10.90;99.90
34147;DHT22;20423;49.448;9.056;2023-03-23T00:16:24;10.90;99.90
34147;DHT22;20423;49.448;9.056;2023-03-23T00:19:00;10.80;99.90
34147;DHT22;20423;49.448;9.056;2023-03-23T00:21:29;10.80;99.90
34147;DHT22;20423;49.448;9.056;2023-03-23T00:24:18;10.80;99.90
34147;DHT22;20423;49.448;9.056;2023-03-23T00:26:46;10.80;99.90
34147;DHT22;20423;49.448;9.056;2023-03-23T00:29:17;10.70;99.90
34147;DHT22;20423;49.448;9.056;2023-03-23T00:31:45;10.70;99.90
34147;DHT22;20423;49.448;9.056;2023-03-23T00:34:16;10.60;99.90
34147;DHT22;20423;49.448;9.056;2023-03-23T00:36:48;10.60;99.90
34147;DHT22;20423;49.448;9.056;2023-03-23T00:39:15;10.60;99.90
34147;DHT22;20423;49.448;9.056;2023-03-23T00:41:42;10.60;99.90
34147;DHT22;20423;49.448;9.056;2023-03-23T00:44:10;10.50;99.90
34147;DHT22;20423;49.448;9.056;2023-03-23T00:46:48;10.40;99.90
34147;DHT22;20423;49.448;9.056;2023-03-23T00:49:17;10.40;99.90
34147;DHT22;20423;49.448;9.056;2023-03-23T00:51:43;10.30;99.90
34147;DHT22;20423;49.448;9.056;2023-03-23T00:54:09;10.40;99.90
34147;DHT22;20423;49.448;9.056;2023-03-23T00:56:36;10.30;99.90
34147;DHT22;20423;49.448;9.056;2023-03-23T00:59:04;10.30;99.90
34147;DHT22;20423;49.448;9.056;2023-03-23T01:01:30;10.30;99.90
34147;DHT22;20423;49.448;9.056;2023-03-23T01:03:58;10.30;99.90
34147;DHT22;20423;49.448;9.056;2023-03-23T01:06:27;10.20;99.90
34147;DHT22;20423;49.448;9.056;2023-03-23T01:08:54;10.20;99.90
34147;DHT22;20423;49.448;9.056;2023-03-23T01:11:20;10.10;99.90
34147;DHT22;20423;49.448;9.056;2023-03-23T01:14:19;10.10;99.90
34147;DHT22;20423;49.448;9.056;2023-03-23T01:16:44;10.10;99.90
34147;DHT22;20423;49.448;9.056;2023-03-23T01:19:11;10.20;99.90
34147;DHT22;20423;49.448;9.056;2023-03-23T01:21:37;10.20;99.90
34147;DHT22;20423;49.448;9.056;2023-03-23T01:24:03;10.20;99.90
34147;DHT22;20423;49.448;9.056;2023-03-23T01:26:29;10.30;99.90
34147;DHT22;20423;49.448;9.056;2023-03-23T01:29:21;10.30;99.90
34147;DHT22;20423;49.448;9.056;2023-03-23T01:31:49;10.30;99.90
34147;DHT22;20423;49.448;9.056;2023-03-23T01:34:14;10.20;99.90
34147;DHT22;20423;49.448;9.056;2023-03-23T01:36:40;10.20;99.90
34147;DHT22;20423;49.448;9.056;2023-03-23T01:39:06;10.30;99.90
34147;DHT22;20423;49.448;9.056;2023-03-23T01:41:34;10.30;99.90
34147;DHT22;20423;49.448;9.056;2023-03-23T01:46:48;10.20;99.90
34147;DHT22;20423;49.448;9.056;2023-03-23T01:49:17;10.20;99.90
34147;DHT22;20423;49.448;9.056;2023-03-23T01:52:09;10.10;99.90
34147;DHT22;20423;49.448;9.056;2023-03-23T01:54:39;10.00;99.90
34147;DHT22;20423;49.448;9.056;2023-03-23T01:57:17;9.90;99.90
34147;DHT22;20423;49.448;9.056;2023-03-23T02:00:07;9.80;99.90
34147;DHT22;20423;49.448;9.056;2023-03-23T02:02:42;9.80;99.90
34147;DHT22;20423;49.448;9.056;2023-03-23T02:05:12;9.80;99.90
34147;DHT22;20423;49.448;9.056;2023-03-23T02:07:41;9.90;99.90
34147;DHT22;20423;49.448;9.056;2023-03-23T02:10:07;9.90;99.90
34147;DHT22;20423;49.448;9.056;2023-03-23T02:12:34;9.90;99.90
34147;DHT22;20423;49.448;9.056;2023-03-23T02:15:02;9.90;99.90
34147;DHT22;20423;49.448;9.056;2023-03-23T02:17:50;10.00;99.90
34147;DHT22;20423;49.448;9.056;2023-03-23T02:37:09;10.20;99.90
34147;DHT22;20423;49.448;9.056;2023-03-23T02:39:52;10.10;99.90
34147;DHT22;20423;49.448;9.056;2023-03-23T02:42:27;10.20;99.90
34147;DHT22;20423;49.448;9.056;2023-03-23T02:44:54;10.20;99.90
34147;DHT22;20423;49.448;9.056;2023-03-23T02:47:24;10.10;99.90
34147;DHT22;20423;49.448;9.056;2023-03-23T02:49:54;10.10;99.90
34147;DHT22;20423;49.448;9.056;2023-03-23T02:52:30;10.10;99.90
34147;DHT22;20423;49.448;9.056;2023-03-23T02:54:57;10.20;99.90
34147;DHT22;20423;49.448;9.056;2023-03-23T02:57:27;10.10;99.90
34147;DHT22;20423;49.448;9.056;2023-03-23T02:59:57;10.10;99.90
34147;DHT22;20423;49.448;9.056;2023-03-23T03:02:29;10.20;99.90
34147;DHT22;20423;49.448;9.056;2023-03-23T03:05:17;10.20;99.90
34147;DHT22;20423;49.448;9.056;2023-03-23T03:11:10;10.30;99.90
34147;DHT22;20423;49.448;9.056;2023-03-23T03:13:43;10.40;99.90
34147;DHT22;20423;49.448;9.056;2023-03-23T03:19:03;10.40;99.90
34147;DHT22;20423;49.448;9.056;2023-03-23T03:21:33;10.40;99.90
34147;DHT22;20423;49.448;9.056;2023-03-23T03:24:03;10.40;99.90
34147;DHT22;20423;49.448;9.056;2023-03-23T03:26:31;10.40;99.90
34147;DHT22;20423;49.448;9.056;2023-03-23T03:29:40;10.40;99.90
34147;DHT22;20423;49.448;9.056;2023-03-23T03:32:10;10.40;99.90
34147;DHT22;20423;49.448;9.056;2023-03-23T03:34:37;10.40;99.90
34147;DHT22;20423;49.448;9.056;2023-03-23T03:37:05;10.30;99.90
34147;DHT22;20423;49.448;9.056;2023-03-23T03:39:36;10.40;99.90
34147;DHT22;20423;49.448;9.056;2023-03-23T03:42:04;10.30;99.90
34147;DHT22;20423;49.448;9.056;2023-03-23T03:44:30;10.30;99.90
34147;DHT22;20423;49.448;9.056;2023-03-23T03:46:56;10.30;99.90
34147;DHT22;20423;49.448;9.056;2023-03-23T03:49:22;10.20;99.90
34147;DHT22;20423;49.448;9.056;2023-03-23T03:51:48;10.20;99.90
34147;DHT22;20423;49.448;9.056;2023-03-23T03:54:22;10.20;99.90
34147;DHT22;20423;49.448;9.056;2023-03-23T03:56:48;10.20;99.90
34147;DHT22;20423;49.448;9.056;2023-03-23T03:59:51;10.20;99.90
34147;DHT22;20423;49.448;9.056;2023-03-23T04:02:36;10.20;99.90
34147;DHT22;20423;49.448;9.056;2023-03-23T04:05:02;10.20;99.90
34147;DHT22;20423;49.448;9.056;2023-03-23T04:07:30;10.20;99.90
34147;DHT22;20423;49.448;9.056;2023-03-23T04:09:56;10.30;99.90
34147;DHT22;20423;49.448;9.056;2023-03-23T04:12:23;10.30;99.90
34147;DHT22;20423;49.448;9.056;2023-03-23T04:14:54;10.30;99.90
34147;DHT22;20423;49.448;9.056;2023-03-23T04:17:20;10.40;99.90
34147;DHT22;20423;49.448;9.056;2023-03-23T04:19:46;10.40;99.90
34147;DHT22;20423;49.448;9.056;2023-03-23T04:22:13;10.40;99.90
34147;DHT22;20423;49.448;9.056;2023-03-23T04:24:42;10.40;99.90
34147;DHT22;20423;49.448;9.056;2023-03-23T04:27:11;10.40;99.90
34147;DHT22;20423;49.448;9.056;2023-03-23T04:29:38;10.40;99.90
34147;DHT22;20423;49.448;9.056;2023-03-23T04:32:27;10.50;99.90
34147;DHT22;20423;49.448;9.056;2023-03-23T04:35:06;10.60;99.90
34147;DHT22;20423;49.448;9.056;2023-03-23T04:37:39;10.60;99.90
34147;DHT22;20423;49.448;9.056;2023-03-23T04:40:07;10.70;99.90
34147;DHT22;20423;49.448;9.056;2023-03-23T04:42:44;10.90;99.90
34147;DHT22;20423;49.448;9.056;2023-03-23T04:45:37;11.00;99.90
34147;DHT22;20423;49.448;9.056;2023-03-23T04:48:04;11.10;99.90
34147;DHT22;20423;49.448;9.056;2023-03-23T04:50:43;11.20;99.90
34147;DHT22;20423;49.448;9.056;2023-03-23T04:53:18;11.20;99.90
34147;DHT22;20423;49.448;9.056;2023-03-23T04:55:45;11.10;99.90
34147;DHT22;20423;49.448;9.056;2023-03-23T04:58:14;11.00;99.90
34147;DHT22;20423;49.448;9.056;2023-03-23T05:01:07;11.10;99.90
34147;DHT22;20423;49.448;9.056;2023-03-23T05:03:46;11.00;99.90
34147;DHT22;20423;49.448;9.056;2023-03-23T05:06:12;11.00;99.90
34147;DHT22;20423;49.448;9.056;2023-03-23T05:08:39;11.10;99.90
34147;DHT22;20423;49.448;9.056;2023-03-23T05:11:06;11.00;99.90
34147;DHT22;20423;49.448;9.056;2023-03-23T05:13:35;11.10;99.90
34147;DHT22;20423;49.448;9.056;2023-03-23T05:16:05;10.90;99.90
34147;DHT22;20423;49.448;9.056;2023-03-23T05:18:33;10.70;99.90
34147;DHT22;20423;49.448;9.056;2023-03-23T05:21:03;10.60;99.90
34147;DHT22;20423;49.448;9.056;2023-03-23T05:23:34;10.50;99.90
34147;DHT22;20423;49.448;9.056;2023-03-23T05:26:09;10.40;99.90
34147;DHT22;20423;49.448;9.056;2023-03-23T05:28:35;10.30;99.90
34147;DHT22;20423;49.448;9.056;2023-03-23T05:31:07;10.20;99.90
34147;DHT22;20423;49.448;9.056;2023-03-23T05:33:33;10.20;99.90
34147;DHT22;20423;49.448;9.056;2023-03-23T05:36:04;10.10;99.90
34147;DHT22;20423;49.448;9.056;2023-03-23T05:38:42;9.90;99.90
34147;DHT22;20423;49.448;9.056;2023-03-23T05:41:11;9.90;99.90
34147;DHT22;20423;49.448;9.056;2023-03-23T05:43:41;9.70;99.90
34147;DHT22;20423;49.448;9.056;2023-03-23T05:46:21;9.70;99.90
34147;DHT22;20423;49.448;9.056;2023-03-23T05:48:51;9.70;99.90
34147;DHT22;20423;49.448;9.056;2023-03-23T05:51:21;9.60;99.90
34147;DHT22;20423;49.448;9.056;2023-03-23T05:53:47;9.40;99.90
34147;DHT22;20423;49.448;9.056;2023-03-23T05:56:15;9.40;99.90
34147;DHT22;20423;49.448;9.056;2023-03-23T05:59:07;9.30;99.90
34147;DHT22;20423;49.448;9.056;2023-03-23T06:01:35;9.30;99.90
34147;DHT22;20423;49.448;9.056;2023-03-23T06:04:07;9.20;99.90
34147;DHT22;20423;49.448;9.056;2023-03-23T06:06:40;9.20;99.90
34147;DHT22;20423;49.448;9.056;2023-03-23T06:09:09;9.10;99.90
34147;DHT22;20423;49.448;9.056;2023-03-23T06:12:30;9.10;99.90
34147;DHT22;20423;49.448;9.056;2023-03-23T06:15:23;9.00;99.90
34147;DHT22;20423;49.448;9.056;2023-03-23T06:18:08;9.10;99.90
34147;DHT22;20423;49.448;9.056;2023-03-23T06:20:57;9.10;99.90
34147;DHT22;20423;49.448;9.056;2023-03-23T06:23:41;9.00;99.90
34147;DHT22;20423;49.448;9.056;2023-03-23T06:26:08;9.20;99.90
34147;DHT22;20423;49.448;9.056;2023-03-23T06:28:35;9.20;99.90
34147;DHT22;20423;49.448;9.056;2023-03-23T06:31:03;9.20;99.90
34147;DHT22;20423;49.448;9.056;2023-03-23T06:37:19;9.30;99.90
34147;DHT22;20423;49.448;9.056;2023-03-23T06:39:56;9.30;99.90
34147;DHT22;20423;49.448;9.056;2023-03-23T06:42:30;9.40;99.90
34147;DHT22;20423;49.448;9.056;2023-03-23T06:45:21;9.40;99.90
34147;DHT22;20423;49.448;9.056;2023-03-23T06:47:52;9.30;99.90
34147;DHT22;20423;49.448;9.056;2023-03-23T06:50:17;9.30;99.90
34147;DHT22;20423;49.448;9.056;2023-03-23T06:52:49;9.30;99.90
34147;DHT22;20423;49.448;9.056;2023-03-23T06:55:17;9.10;99.90
34147;DHT22;20423;49.448;9.056;2023-03-23T06:57:44;9.20;99.90
34147;DHT22;20423;49.448;9.056;2023-03-23T07:00:12;9.20;99.90
34147;DHT22;20423;49.448;9.056;2023-03-23T07:02:40;9.10;99.90
34147;DHT22;20423;49.448;9.056;2023-03-23T07:05:07;9.10;99.90
34147;DHT22;20423;49.448;9.056;2023-03-23T07:07:39;9.20;99.90
34147;DHT22;20423;49.448;9.056;2023-03-23T07:10:21;9.10;99.90
34147;DHT22;20423;49.448;9.056;2023-03-23T07:12:47;9.20;99.90
34147;DHT22;20423;49.448;9.056;2023-03-23T07:15:13;9.20;99.90
34147;DHT22;20423;49.448;9.056;2023-03-23T07:17:42;9.30;99.90
34147;DHT22;20423;49.448;9.056;2023-03-23T07:20:17;9.30;99.90
34147;DHT22;20423;49.448;9.056;2023-03-23T07:22:43;9.50;99.90
34147;DHT22;20423;49.448;9.056;2023-03-23T07:25:20;9.60;99.90
34147;DHT22;20423;49.448;9.056;2023-03-23T07:27:50;9.60;99.90
34147;DHT22;20423;49.448;9.056;2023-03-23T07:30:16;9.50;99.90
34147;DHT22;20423;49.448;9.056;2023-03-23T07:36:30;9.50;99.90
34147;DHT22;20423;49.448;9.056;2023-03-23T07:38:58;9.40;99.90
34147;DHT22;20423;49.448;9.056;2023-03-23T07:41:24;9.30;99.90
34147;DHT22;20423;49.448;9.056;2023-03-23T07:43:52;9.30;99.90
34147;DHT22;20423;49.448;9.056;2023-03-23T07:46:29;9.20;99.90
34147;DHT22;20423;49.448;9.056;2023-03-23T07:49:24;9.20;99.90
34147;DHT22;20423;49.448;9.056;2023-03-23T07:52:00;9.10;99.90
34147;DHT22;20423;49.448;9.056;2023-03-23T07:54:33;9.10;99.90
34147;DHT22;20423;49.448;9.056;2023-03-23T07:57:14;9.00;99.90
34147;DHT22;20423;49.448;9.056;2023-03-23T07:59:46;9.00;99.90
34147;DHT22;20423;49.448;9.056;2023-03-23T08:02:13;9.00;99.90
34147;DHT22;20423;49.448;9.056;2023-03-23T08:04:41;9.00;99.90
34147;DHT22;20423;49.448;9.056;2023-03-23T08:07:34;9.00;99.90
34147;DHT22;20423;49.448;9.056;2023-03-23T08:10:38;8.90;99.90
34147;DHT22;20423;49.448;9.056;2023-03-23T08:13:23;8.90;99.90
34147;DHT22;20423;49.448;9.056;2023-03-23T08:16:03;8.90;99.90
34147;DHT22;20423;49.448;9.056;2023-03-23T08:18:52;8.90;99.90
34147;DHT22;20423;49.448;9.056;2023-03-23T08:21:34;9.00;99.90
34147;DHT22;20423;49.448;9.056;2023-03-23T08:24:16;8.90;99.90
34147;DHT22;20423;49.448;9.056;2023-03-23T08:27:05;8.90;99.90
34147;DHT22;20423;49.448;9.056;2023-03-23T08:29:51;9.00;99.90
34147;DHT22;20423;49.448;9.056;2023-03-23T08:32:35;9.00;99.90
34147;DHT22;20423;49.448;9.056;2023-03-23T08:35:27;9.10;99.90
34147;DHT22;20423;49.448;9.056;2023-03-23T08:37:59;9.20;99.90
34147;DHT22;20423;49.448;9.056;2023-03-23T08:40:47;9.30;99.90
34147;DHT22;20423;49.448;9.056;2023-03-23T08:43:35;9.30;99.90
34147;DHT22;20423;49.448;9.056;2023-03-23T08:46:25;9.40;99.90
34147;DHT22;20423;49.448;9.056;2023-03-23T08:49:25;9.70;99.90
34147;DHT22;20423;49.448;9.056;2023-03-23T08:52:07;9.80;99.90
34147;DHT22;20423;49.448;9.056;2023-03-23T08:54:51;9.90;99.90
34147;DHT22;20423;49.448;9.056;2023-03-23T08:57:46;9.90;99.90
34147;DHT22;20423;49.448;9.056;2023-03-23T09:00:59;10.00;99.90
34147;DHT22;20423;49.448;9.056;2023-03-23T09:03:35;9.90;99.90
34147;DHT22;20423;49.448;9.056;2023-03-23T09:06:17;10.00;99.90
34147;DHT22;20423;49.448;9.056;2023-03-23T09:12:31;9.90;99.90
34147;DHT22;20423;49.448;9.056;2023-03-23T09:14:56;9.80;99.90
34147;DHT22;20423;49.448;9.056;2023-03-23T09:17:22;9.80;99.90
34147;DHT22;20423;49.448;9.056;2023-03-23T09:20:08;9.80;99.90
34147;DHT22;20423;49.448;9.056;2023-03-23T09:22:39;10.00;99.90
34147;DHT22;20423;49.448;9.056;2023-03-23T09:25:06;10.00;99.90
34147;DHT22;20423;49.448;9.056;2023-03-23T09:27:32;10.10;99.90
34147;DHT22;20423;49.448;9.056;2023-03-23T09:29:58;10.10;99.90
34147;DHT22;20423;49.448;9.056;2023-03-23T09:32:26;10.00;99.90
34147;DHT22;20423;49.448;9.056;2023-03-23T09:34:52;9.90;99.90
34147;DHT22;20423;49.448;9.056;2023-03-23T09:37:20;9.90;99.90
34147;DHT22;20423;49.448;9.056;2023-03-23T09:39:46;9.90;99.90
34147;DHT22;20423;49.448;9.056;2023-03-23T09:53:50;10.00;99.90
34147;DHT22;20423;49.448;9.056;2023-03-23T09:56:16;10.00;99.90
34147;DHT22;20423;49.448;9.056;2023-03-23T09:59:34;10.00;99.90
34147;DHT22;20423;49.448;9.056;2023-03-23T10:01:36;10.00;99.90
34147;DHT22;20423;49.448;9.056;2023-03-23T10:04:22;10.00;99.90
34147;DHT22;20423;49.448;9.056;2023-03-23T10:06:49;10.10;99.90
34147;DHT22;20423;49.448;9.056;2023-03-23T10:09:17;10.30;99.90
34147;DHT22;20423;49.448;9.056;2023-03-23T10:12:13;10.50;99.90
34147;DHT22;20423;49.448;9.056;2023-03-23T10:21:01;10.60;99.90
34147;DHT22;20423;49.448;9.056;2023-03-23T10:28:57;10.60;99.90
34147;DHT22;20423;49.448;9.056;2023-03-23T10:31:29;10.40;99.90
34147;DHT22;20423;49.448;9.056;2023-03-23T10:33:59;10.40;99.90
34147;DHT22;20423;49.448;9.056;2023-03-23T10:36:35;10.30;99.90
34147;DHT22;20423;49.448;9.056;2023-03-23T10:39:15;10.60;99.90
34147;DHT22;20423;49.448;9.056;2023-03-23T10:42:01;11.00;99.90
34147;DHT22;20423;49.448;9.056;2023-03-23T10:44:33;11.30;99.90
34147;DHT22;20423;49.448;9.056;2023-03-23T10:47:05;11.50;99.90
34147;DHT22;20423;49.448;9.056;2023-03-23T10:49:45;11.80;99.90
34147;DHT22;20423;49.448;9.056;2023-03-23T10:52:30;12.50;99.90
34147;DHT22;20423;49.448;9.056;2023-03-23T10:55:01;12.80;99.90
34147;DHT22;20423;49.448;9.056;2023-03-23T10:57:33;12.60;99.90
34147;DHT22;20423;49.448;9.056;2023-03-23T11:00:21;12.60;99.90
34147;DHT22;20423;49.448;9.056;2023-03-23T11:05:47;13.10;99.90
34147;DHT22;20423;49.448;9.056;2023-03-23T11:08:19;13.00;99.90
34147;DHT22;20423;49.448;9.056;2023-03-23T11:10:55;12.90;99.90
34147;DHT22;20423;49.448;9.056;2023-03-23T11:13:23;12.80;99.90
34147;DHT22;20423;49.448;9.056;2023-03-23T11:15:52;12.40;99.90
34147;DHT22;20423;49.448;9.056;2023-03-23T11:20:46;11.40;99.90
34147;DHT22;20423;49.448;9.056;2023-03-23T11:23:33;11.20;99.90
34147;DHT22;20423;49.448;9.056;2023-03-23T11:28:47;10.80;99.90
34147;DHT22;20423;49.448;9.056;2023-03-23T11:31:16;10.80;99.90
34147;DHT22;20423;49.448;9.056;2023-03-23T11:36:20;10.70;99.90
34147;DHT22;20423;49.448;9.056;2023-03-23T11:38:54;10.60;99.90
34147;DHT22;20423;49.448;9.056;2023-03-23T11:41:22;10.50;99.90
34147;DHT22;20423;49.448;9.056;2023-03-23T11:43:51;10.50;99.90
34147;DHT22;20423;49.448;9.056;2023-03-23T11:46:38;10.40;99.90
34147;DHT22;20423;49.448;9.056;2023-03-23T11:49:12;10.40;99.90
34147;DHT22;20423;49.448;9.056;2023-03-23T11:51:45;10.40;99.90
34147;DHT22;20423;49.448;9.056;2023-03-23T11:56:53;10.50;99.90
34147;DHT22;20423;49.448;9.056;2023-03-23T11:59:32;10.60;99.90
34147;DHT22;20423;49.448;9.056;2023-03-23T12:02:39;10.80;99.90
34147;DHT22;20423;49.448;9.056;2023-03-23T12:08:25;11.40;99.90
34147;DHT22;20423;49.448;9.056;2023-03-23T12:11:01;11.60;99.90
34147;DHT22;20423;49.448;9.056;2023-03-23T12:13:54;11.70;99.90
34147;DHT22;20423;49.448;9.056;2023-03-23T12:16:57;11.90;99.90
34147;DHT22;20423;49.448;9.056;2023-03-23T12:19:36;11.80;99.90
34147;DHT22;20423;49.448;9.056;2023-03-23T12:27:34;11.20;99.90
34147;DHT22;20423;49.448;9.056;2023-03-23T12:35:45;10.80;99.90
34147;DHT22;20423;49.448;9.056;2023-03-23T12:38:30;10.70;99.90
34147;DHT22;20423;49.448;9.056;2023-03-23T12:41:17;10.80;99.90
34147;DHT22;20423;49.448;9.056;2023-03-23T12:44:05;10.80;99.90
34147;DHT22;20423;49.448;9.056;2023-03-23T12:46:54;10.70;99.90
34147;DHT22;20423;49.448;9.056;2023-03-23T12:49:32;10.80;99.90
34147;DHT22;20423;49.448;9.056;2023-03-23T12:58:22;10.80;99.90
34147;DHT22;20423;49.448;9.056;2023-03-23T13:00:53;10.80;99.90
34147;DHT22;20423;49.448;9.056;2023-03-23T13:12:00;10.80;99.90
34147;DHT22;20423;49.448;9.056;2023-03-23T13:25:30;11.00;99.90
34147;DHT22;20423;49.448;9.056;2023-03-23T13:28:03;11.30;99.90
34147;DHT22;20423;49.448;9.056;2023-03-23T13:30:29;11.40;99.90
34147;DHT22;20423;49.448;9.056;2023-03-23T13:33:12;11.30;99.90
34147;DHT22;20423;49.448;9.056;2023-03-23T13:35:49;11.20;99.90
34147;DHT22;20423;49.448;9.056;2023-03-23T13:38:29;11.20;99.90
34147;DHT22;20423;49.448;9.056;2023-03-23T13:40:55;11.10;99.90
34147;DHT22;20423;49.448;9.056;2023-03-23T13:43:29;11.00;99.90
34147;DHT22;20423;49.448;9.056;2023-03-23T13:46:07;10.90;99.90
34147;DHT22;20423;49.448;9.056;2023-03-23T13:48:44;10.90;99.90
34147;DHT22;20423;49.448;9.056;2023-03-23T13:54:39;10.80;99.90
34147;DHT22;20423;49.448;9.056;2023-03-23T13:57:48;10.80;99.90
34147;DHT22;20423;49.448;9.056;2023-03-23T14:11:00;10.60;99.90
34147;DHT22;20423;49.448;9.056;2023-03-23T14:13:46;10.60;99.90
34147;DHT22;20423;49.448;9.056;2023-03-23T14:16:21;10.60;99.90
34147;DHT22;20423;49.448;9.056;2023-03-23T14:18:53;10.50;99.90
34147;DHT22;20423;49.448;9.056;2023-03-23T14:21:49;10.60;99.90
34147;DHT22;20423;49.448;9.056;2023-03-23T14:24:20;10.70;99.90
34147;DHT22;20423;49.448;9.056;2023-03-23T14:26:48;10.70;99.90
34147;DHT22;20423;49.448;9.056;2023-03-23T14:29:18;10.70;99.90
34147;DHT22;20423;49.448;9.056;2023-03-23T14:31:44;10.80;99.90
34147;DHT22;20423;49.448;9.056;2023-03-23T14:34:15;10.80;99.90
34147;DHT22;20423;49.448;9.056;2023-03-23T14:36:43;10.70;99.90
34147;DHT22;20423;49.448;9.056;2023-03-23T14:41:41;10.80;99.90
34147;DHT22;20423;49.448;9.056;2023-03-23T14:44:16;10.80;99.90
34147;DHT22;20423;49.448;9.056;2023-03-23T14:46:44;10.70;99.90
34147;DHT22;20423;49.448;9.056;2023-03-23T14:49:14;10.70;99.90
34147;DHT22;20423;49.448;9.056;2023-03-23T14:51:53;10.70;99.90
34147;DHT22;20423;49.448;9.056;2023-03-23T14:54:27;10.50;99.90
34147;DHT22;20423;49.448;9.056;2023-03-23T14:56:54;10.50;99.90
34147;DHT22;20423;49.448;9.056;2023-03-23T14:59:23;10.30;99.90
34147;DHT22;20423;49.448;9.056;2023-03-23T15:01:50;10.20;99.90
34147;DHT22;20423;49.448;9.056;2023-03-23T15:04:22;10.20;99.90
34147;DHT22;20423;49.448;9.056;2023-03-23T15:07:02;10.20;99.90
34147;DHT22;20423;49.448;9.056;2023-03-23T15:09:28;10.10;99.90
34147;DHT22;20423;49.448;9.056;2023-03-23T15:12:02;10.10;99.90
34147;DHT22;20423;49.448;9.056;2023-03-23T15:14:45;10.00;99.90
34147;DHT22;20423;49.448;9.056;2023-03-23T15:17:18;9.90;99.90
34147;DHT22;20423;49.448;9.056;2023-03-23T15:19:45;9.90;99.90
34147;DHT22;20423;49.448;9.056;2023-03-23T15:22:21;9.80;99.90
34147;DHT22;20423;49.448;9.056;2023-03-23T15:24:47;9.90;99.90
34147;DHT22;20423;49.448;9.056;2023-03-23T15:27:17;9.90;99.90
34147;DHT22;20423;49.448;9.056;2023-03-23T15:29:50;9.90;99.90
34147;DHT22;20423;49.448;9.056;2023-03-23T15:32:21;9.90;99.90
34147;DHT22;20423;49.448;9.056;2023-03-23T15:34:47;10.00;99.90
34147;DHT22;20423;49.448;9.056;2023-03-23T15:37:29;10.00;99.90
34147;DHT22;20423;49.448;9.056;2023-03-23T15:39:57;9.90;99.90
34147;DHT22;20423;49.448;9.056;2023-03-23T15:42:29;9.90;99.90
34147;DHT22;20423;49.448;9.056;2023-03-23T15:48:12;9.90;99.90
34147;DHT22;20423;49.448;9.056;2023-03-23T15:50:40;9.90;99.90
34147;DHT22;20423;49.448;9.056;2023-03-23T15:55:53;9.90;99.90
34147;DHT22;20423;49.448;9.056;2023-03-23T15:58:19;9.90;99.90
34147;DHT22;20423;49.448;9.056;2023-03-23T16:06:31;10.00;99.90
34147;DHT22;20423;49.448;9.056;2023-03-23T16:08:58;10.00;99.90
34147;DHT22;20423;49.448;9.056;2023-03-23T16:11:26;10.20;99.90
34147;DHT22;20423;49.448;9.056;2023-03-23T16:13:53;10.30;99.90
34147;DHT22;20423;49.448;9.056;2023-03-23T16:16:23;10.50;99.90
34147;DHT22;20423;49.448;9.056;2023-03-23T16:18:49;10.60;99.90
34147;DHT22;20423;49.448;9.056;2023-03-23T16:21:15;10.60;99.90
34147;DHT22;20423;49.448;9.056;2023-03-23T16:23:41;10.60;99.90
34147;DHT22;20423;49.448;9.056;2023-03-23T16:26:09;10.70;99.90
34147;DHT22;20423;49.448;9.056;2023-03-23T16:28:35;10.70;99.90
34147;DHT22;20423;49.448;9.056;2023-03-23T16:31:32;10.70;99.90
34147;DHT22;20423;49.448;9.056;2023-03-23T16:33:58;10.70;99.90
34147;DHT22;20423;49.448;9.056;2023-03-23T16:36:23;10.70;99.90
34147;DHT22;20423;49.448;9.056;2023-03-23T16:38:49;10.70;99.90
34147;DHT22;20423;49.448;9.056;2023-03-23T16:41:16;10.70;99.90
34147;DHT22;20423;49.448;9.056;2023-03-23T16:43:41;10.70;99.90
34147;DHT22;20423;49.448;9.056;2023-03-23T16:46:10;10.60;99.90
34147;DHT22;20423;49.448;9.056;2023-03-23T16:48:36;10.70;99.90
34147;DHT22;20423;49.448;9.056;2023-03-23T16:51:02;10.70;99.90
34147;DHT22;20423;49.448;9.056;2023-03-23T16:53:28;10.70;99.90
34147;DHT22;20423;49.448;9.056;2023-03-23T16:55:54;10.70;99.90
34147;DHT22;20423;49.448;9.056;2023-03-23T16:58:22;10.70;99.90
34147;DHT22;20423;49.448;9.056;2023-03-23T17:00:49;10.60;99.90
34147;DHT22;20423;49.448;9.056;2023-03-23T17:03:19;10.60;99.90
34147;DHT22;20423;49.448;9.056;2023-03-23T17:05:51;10.70;99.90
34147;DHT22;20423;49.448;9.056;2023-03-23T17:08:17;10.70;99.90
34147;DHT22;20423;49.448;9.056;2023-03-23T17:10:44;10.60;99.90
34147;DHT22;20423;49.448;9.056;2023-03-23T17:13:10;10.60;99.90
34147;DHT22;20423;49.448;9.056;2023-03-23T17:15:38;10.60;99.90
34147;DHT22;20423;49.448;9.056;2023-03-23T17:18:05;10.60;99.90
34147;DHT22;20423;49.448;9.056;2023-03-23T17:20:32;10.60;99.90
34147;DHT22;20423;49.448;9.056;2023-03-23T17:22:58;10.60;99.90
34147;DHT22;20423;49.448;9.056;2023-03-23T17:25:26;10.50;99.90
34147;DHT22;20423;49.448;9.056;2023-03-23T17:27:57;10.50;99.90
34147;DHT22;20423;49.448;9.056;2023-03-23T17:30:23;10.50;99.90
34147;DHT22;20423;49.448;9.056;2023-03-23T17:32:48;10.50;99.90
34147;DHT22;20423;49.448;9.056;2023-03-23T17:35:15;10.50;99.90
34147;DHT22;20423;49.448;9.056;2023-03-23T17:41:30;10.40;99.90
34147;DHT22;20423;49.448;9.056;2023-03-23T17:43:56;10.40;99.90
34147;DHT22;20423;49.448;9.056;2023-03-23T17:46:22;10.40;99.90
34147;DHT22;20423;49.448;9.056;2023-03-23T17:48:47;10.40;99.90
34147;DHT22;20423;49.448;9.056;2023-03-23T17:51:44;10.40;99.90
34147;DHT22;20423;49.448;9.056;2023-03-23T17:54:10;10.40;99.90
34147;DHT22;20423;49.448;9.056;2023-03-23T17:56:36;10.30;99.90
34147;DHT22;20423;49.448;9.056;2023-03-23T17:59:01;10.30;99.90
34147;DHT22;20423;49.448;9.056;2023-03-23T18:01:27;10.30;99.90
34147;DHT22;20423;49.448;9.056;2023-03-23T18:03:53;10.30;99.90
34147;DHT22;20423;49.448;9.056;2023-03-23T18:06:18;10.40;99.90
34147;DHT22;20423;49.448;9.056;2023-03-23T18:08:45;10.40;99.90
34147;DHT22;20423;49.448;9.056;2023-03-23T18:11:10;10.50;99.90
34147;DHT22;20423;49.448;9.056;2023-03-23T18:13:37;10.50;99.90
34147;DHT22;20423;49.448;9.056;2023-03-23T18:16:03;10.70;99.90
34147;DHT22;20423;49.448;9.056;2023-03-23T18:18:30;10.60;99.90
34147;DHT22;20423;49.448;9.056;2023-03-23T18:21:09;10.60;99.90
34147;DHT22;20423;49.448;9.056;2023-03-23T18:23:36;10.60;99.90
34147;DHT22;20423;49.448;9.056;2023-03-23T18:26:06;10.70;99.90
34147;DHT22;20423;49.448;9.056;2023-03-23T18:28:33;10.70;99.90
34147;DHT22;20423;49.448;9.056;2023-03-23T18:31:07;10.70;99.90
34147;DHT22;20423;49.448;9.056;2023-03-23T18:33:50;10.70;99.90
34147;DHT22;20423;49.448;9.056;2023-03-23T18:36:18;10.70;99.90
34147;DHT22;20423;49.448;9.056;2023-03-23T18:38:45;10.80;99.90